Time;durP1;ratioP1;P1;durP2;ratioP2;P2;SDS_P1;SDS_P2;PMS_P1;PMS_P2;Temp;Humidity;BMP_temperature;BMP_pressure;BME280_temperature;BME280_humidity;BME280_pressure;Samples;Min_cycle;Max_cycle;Signal;HPM_P1;HPM_P2
2022/09/23 00:01:15;;;;;;;3.67;2.45;;;20.20;63.50;;;;;;4993456;28;20053;-62
2022/09/23 00:03:41;;;;;;;;;;;20.20;63.50;;;;;;4995156;28;20085;-62
2022/09/23 00:06:09;;;;;;;4.00;2.45;;;20.20;63.50;;;;;;4994256;28;19926;-62
2022/09/23 00:08:35;;;;;;;4.40;2.67;;;20.20;63.60;;;;;;4994037;28;20042;-62
2022/09/23 00:11:20;;;;;;;3.78;2.30;;;20.20;63.60;;;;;;4994483;28;20061;-62
2022/09/23 00:13:47;;;;;;;3.50;2.25;;;20.20;63.50;;;;;;4994126;28;20050;-62
2022/09/23 00:16:16;;;;;;;4.45;2.40;;;20.20;63.60;;;;;;4993524;28;20046;-62
2022/09/23 00:18:41;;;;;;;4.07;2.20;;;20.20;63.50;;;;;;4993707;28;20045;-62
2022/09/23 00:21:09;;;;;;;4.25;2.47;;;20.20;63.50;;;;;;4993530;28;20042;-62
2022/09/23 00:23:35;;;;;;;3.80;2.25;;;20.20;63.50;;;;;;4993630;28;20047;-62
2022/09/23 00:26:01;;;;;;;4.40;2.17;;;20.20;63.50;;;;;;4993966;28;20113;-62
2022/09/23 00:28:27;;;;;;;4.22;2.17;;;20.20;63.50;;;;;;4993735;28;20065;-62
2022/09/23 00:30:53;;;;;;;3.25;2.17;;;20.20;63.50;;;;;;4976220;28;20485;-62
2022/09/23 00:33:19;;;;;;;4.35;2.30;;;20.10;63.40;;;;;;4993803;28;20046;-62
2022/09/23 00:35:44;;;;;;;3.28;2.10;;;20.10;63.40;;;;;;4993538;28;20053;-62
2022/09/23 00:38:10;;;;;;;2.95;2.30;;;20.10;63.40;;;;;;4993064;28;20053;-62
2022/09/23 00:40:44;;;;;;;3.28;2.05;;;20.10;63.40;;;;;;4993686;28;20057;-62
2022/09/23 00:43:16;;;;;;;3.20;2.00;;;20.10;63.40;;;;;;4992412;28;20533;-62
2022/09/23 00:45:47;;;;;;;3.55;2.35;;;20.10;63.40;;;;;;4993763;28;20515;-62
2022/09/23 00:48:15;;;;;;;3.35;2.00;;;20.10;63.40;;;;;;4992192;28;20042;-62
2022/09/23 00:50:42;;;;;;;3.95;2.25;;;20.10;63.40;;;;;;4991820;28;20068;-62
2022/09/23 00:53:10;;;;;;;3.15;2.10;;;20.10;63.40;;;;;;4992370;28;20097;-62
2022/09/23 00:55:51;;;;;;;4.35;2.22;;;20.10;63.40;;;;;;4993455;28;20113;-62
2022/09/23 00:58:18;;;;;;;4.72;2.20;;;20.10;63.30;;;;;;4993067;28;20133;-64
2022/09/23 01:00:45;;;;;;;3.67;2.58;;;20.10;63.30;;;;;;4992349;28;20071;-62
2022/09/23 01:03:11;;;;;;;3.70;2.30;;;20.10;63.30;;;;;;4993190;28;20046;-62
2022/09/23 01:05:38;;;;;;;3.40;2.13;;;20.10;63.40;;;;;;4993158;28;20117;-62
2022/09/23 01:08:04;;;;;;;3.30;2.20;;;20.00;63.30;;;;;;4993549;28;20117;-62
2022/09/23 01:10:44;;;;;;;3.78;1.83;;;20.10;63.30;;;;;;4991726;28;20581;-62
2022/09/23 01:13:26;;;;;;;4.20;2.10;;;20.00;63.30;;;;;;4992209;28;20116;-62
2022/09/23 01:15:56;;;;;;;3.08;1.90;;;20.00;63.90;;;;;;4992350;28;20038;-62
2022/09/23 01:19:10;;;;;;;3.95;2.00;;;20.00;63.30;;;;;;4991296;28;20046;-62
2022/09/23 01:22:00;;;;;;;3.13;2.20;;;20.00;63.20;;;;;;4940327;28;20507;-62
2022/09/23 01:24:28;;;;;;;3.60;1.85;;;20.00;63.30;;;;;;4992523;28;20049;-62
2022/09/23 01:27:06;;;;;;;3.53;2.08;;;20.00;63.30;;;;;;4992544;28;20375;-62
2022/09/23 01:30:05;;;;;;;2.75;1.58;;;20.00;63.30;;;;;;4992128;28;20121;-62
2022/09/23 01:32:33;;;;;;;3.47;2.15;;;20.00;63.20;;;;;;4991206;28;20882;-62
2022/09/23 01:35:17;;;;;;;4.38;2.15;;;20.00;63.30;;;;;;4993365;28;20057;-62
2022/09/23 01:37:49;;;;;;;3.90;2.00;;;20.00;63.30;;;;;;4991880;28;20042;-62
2022/09/23 01:40:17;;;;;;;3.85;2.08;;;20.00;63.30;;;;;;4991317;28;20053;-62
2022/09/23 01:42:51;;;;;;;2.88;1.95;;;20.00;63.30;;;;;;4991660;28;20375;-62
2022/09/23 01:45:46;;;;;;;3.15;2.08;;;20.00;63.30;;;;;;4991422;28;20046;-62
2022/09/23 01:48:31;;;;;;;4.95;2.20;;;20.00;63.20;;;;;;4992104;28;20390;-62
2022/09/23 01:51:22;;;;;;;3.35;2.15;;;19.90;63.20;;;;;;4992158;28;20042;-62
2022/09/23 01:54:07;;;;;;;3.97;2.10;;;19.90;63.20;;;;;;4985918;28;20085;-62
2022/09/23 01:56:55;;;;;;;3.47;1.95;;;19.90;63.20;;;;;;4991597;28;20054;-62
2022/09/23 01:59:35;;;;;;;3.92;2.10;;;19.90;63.20;;;;;;4990634;28;20050;-62
2022/09/23 02:02:20;;;;;;;2.90;1.90;;;19.90;63.20;;;;;;4991098;28;20085;-62
2022/09/23 02:04:57;;;;;;;3.03;2.00;;;19.90;63.20;;;;;;4975272;28;20060;-62
2022/09/23 02:07:38;;;;;;;3.25;2.13;;;19.90;63.20;;;;;;4959288;28;20061;-62
2022/09/23 02:10:15;;;;;;;4.07;2.05;;;19.90;63.20;;;;;;4961119;28;20458;-62
2022/09/23 02:12:41;;;;;;;2.42;1.67;;;19.90;63.20;;;;;;4975262;28;20046;-62
2022/09/23 02:15:18;;;;;;;3.55;2.05;;;19.90;63.20;;;;;;4974620;28;20043;-62
2022/09/23 02:17:54;;;;;;;2.78;2.00;;;19.90;63.20;;;;;;4976278;28;20058;-62
2022/09/23 02:20:28;;;;;;;3.10;2.10;;;19.90;63.20;;;;;;4992331;28;20031;-62
2022/09/23 02:23:00;;;;;;;4.07;2.17;;;19.90;63.20;;;;;;4959152;28;20058;-62
2022/09/23 02:25:32;;;;;;;2.67;1.98;;;19.90;63.20;;;;;;4975735;28;20088;-62
2022/09/23 02:28:10;;;;;;;3.22;1.90;;;19.80;63.10;;;;;;4975776;28;20043;-62
2022/09/23 02:30:49;;;;;;;3.47;2.03;;;19.80;63.20;;;;;;4975654;28;20490;-62
2022/09/23 02:33:33;;;;;;;3.92;2.13;;;19.90;63.20;;;;;;4976595;28;20046;-63
2022/09/23 02:36:19;;;;;;;2.83;1.92;;;19.90;63.20;;;;;;4959435;28;20043;-62
2022/09/23 02:38:56;;;;;;;3.47;2.08;;;19.80;63.10;;;;;;4975507;28;20088;-62
2022/09/23 02:41:25;;;;;;;3.42;1.90;;;19.80;63.20;;;;;;4961198;28;20081;-62
2022/09/23 02:43:56;;;;;;;3.33;2.03;;;19.80;63.20;;;;;;4978085;28;20058;-62
2022/09/23 02:46:21;;;;;;;3.40;1.88;;;19.80;63.10;;;;;;4978617;28;20050;-62
2022/09/23 02:49:19;;;;;;;3.13;1.98;;;19.80;63.10;;;;;;4978311;28;20041;-62
2022/09/23 02:51:44;;;;;;;2.47;1.75;;;19.80;63.10;;;;;;4966318;28;20062;-62
2022/09/23 02:54:13;;;;;;;4.10;2.10;;;19.80;63.10;;;;;;4978143;28;20117;-62
2022/09/23 02:56:39;;;;;;;2.83;1.60;;;19.80;63.10;;;;;;4995301;28;20046;-62
2022/09/23 02:59:05;;;;;;;4.22;2.13;;;19.80;63.10;;;;;;4995520;28;20038;-62
2022/09/23 03:01:55;;;;;;;4.38;1.90;;;19.80;63.10;;;;;;4995537;28;20049;-62
2022/09/23 03:04:25;;;;;;;3.17;2.03;;;19.80;63.10;;;;;;4994907;28;20038;-62
2022/09/23 03:07:08;;;;;;;3.10;2.13;;;19.70;63.00;;;;;;4978568;28;20581;-62
2022/09/23 03:09:46;;;;;;;2.45;1.77;;;19.70;63.00;;;;;;4963703;28;20046;-62
2022/09/23 03:12:30;;;;;;;2.90;2.10;;;19.70;63.10;;;;;;4962681;28;20057;-62
2022/09/23 03:15:18;;;;;;;2.83;2.15;;;19.70;63.00;;;;;;4980032;28;20074;-62
2022/09/23 03:17:50;;;;;;;2.85;2.00;;;19.70;63.00;;;;;;4977506;28;20138;-62
2022/09/23 03:20:33;;;;;;;3.38;2.00;;;19.70;63.00;;;;;;4978433;28;20042;-62
2022/09/23 03:23:05;;;;;;;2.50;1.90;;;19.70;63.10;;;;;;4978170;28;20060;-62
2022/09/23 03:25:32;;;;;;;2.88;2.13;;;19.70;63.10;;;;;;4977960;28;20030;-63
2022/09/23 03:27:59;;;;;;;2.22;1.65;;;19.70;63.00;;;;;;4962180;28;20129;-62
2022/09/23 03:30:25;;;;;;;2.95;1.73;;;19.70;63.00;;;;;;4961714;28;20042;-62
2022/09/23 03:32:50;;;;;;;3.08;1.85;;;19.70;63.10;;;;;;4994675;28;20059;-62
2022/09/23 03:35:17;;;;;;;2.80;1.88;;;19.70;63.00;;;;;;4977765;28;20137;-62
2022/09/23 03:37:56;;;;;;;3.38;2.17;;;19.70;63.10;;;;;;4977599;28;20133;-62
2022/09/23 03:40:27;;;;;;;3.15;1.83;;;19.70;63.00;;;;;;4994381;28;20474;-62
2022/09/23 03:42:55;;;;;;;3.50;1.85;;;19.70;63.00;;;;;;4945426;28;20069;-62
2022/09/23 03:45:25;;;;;;;2.90;1.83;;;19.70;63.00;;;;;;4977002;28;20042;-62
2022/09/23 03:47:50;;;;;;;3.58;1.80;;;19.70;63.00;;;;;;4977154;28;20081;-62
2022/09/23 03:50:16;;;;;;;3.42;1.85;;;19.60;63.00;;;;;;4994439;28;20050;-62
2022/09/23 03:52:42;;;;;;;3.45;1.95;;;19.60;63.00;;;;;;4994803;28;20046;-62
2022/09/23 03:55:08;;;;;;;3.22;2.00;;;19.60;63.00;;;;;;4993789;28;20038;-62
2022/09/23 03:57:33;;;;;;;2.47;1.52;;;19.60;63.00;;;;;;4994821;28;20053;-62
2022/09/23 03:59:59;;;;;;;3.45;1.98;;;19.60;63.00;;;;;;4994272;28;20042;-62
2022/09/23 04:02:25;;;;;;;3.33;1.90;;;19.60;63.00;;;;;;4987368;28;20046;-62
2022/09/23 04:04:51;;;;;;;2.40;2.00;;;19.60;63.00;;;;;;4993226;28;20044;-62
2022/09/23 04:07:16;;;;;;;3.03;1.73;;;19.60;63.00;;;;;;4993056;28;20061;-62
2022/09/23 04:09:42;;;;;;;2.53;1.80;;;19.60;63.00;;;;;;4994086;28;20045;-62
2022/09/23 04:12:11;;;;;;;2.65;1.80;;;19.60;63.00;;;;;;4993907;28;20381;-62
2022/09/23 04:14:37;;;;;;;2.55;1.70;;;19.60;63.00;;;;;;4992859;28;20050;-62
2022/09/23 04:17:03;;;;;;;2.63;1.70;;;19.60;63.00;;;;;;4994255;28;20406;-62
2022/09/23 04:19:29;;;;;;;2.75;1.70;;;19.60;62.90;;;;;;4993517;28;20050;-62
2022/09/23 04:21:54;;;;;;;2.55;1.58;;;19.60;63.00;;;;;;4993588;28;20049;-62
2022/09/23 04:24:20;;;;;;;2.88;1.70;;;19.50;62.90;;;;;;4993857;28;20082;-64
2022/09/23 04:26:50;;;;;;;3.30;2.00;;;19.60;63.00;;;;;;4994162;28;20062;-62
2022/09/23 04:29:15;;;;;;;3.03;1.85;;;19.50;62.90;;;;;;4993200;28;20519;-62
2022/09/23 04:31:41;;;;;;;3.00;1.90;;;19.50;62.90;;;;;;4994317;28;20042;-62
2022/09/23 04:34:06;;;;;;;2.72;1.83;;;19.60;62.90;;;;;;4993760;28;20050;-62
2022/09/23 04:36:32;;;;;;;2.40;1.90;;;19.50;62.90;;;;;;4993718;28;20050;-62
2022/09/23 04:38:58;;;;;;;3.25;2.20;;;19.50;62.90;;;;;;4993813;28;20045;-63
2022/09/23 04:41:23;;;;;;;2.88;1.70;;;19.60;63.00;;;;;;4993335;28;20050;-62
2022/09/23 04:43:49;;;;;;;2.67;1.75;;;19.60;62.90;;;;;;4993105;28;20073;-62
2022/09/23 04:46:14;;;;;;;3.28;1.73;;;19.60;62.90;;;;;;4993418;28;20125;-62
2022/09/23 04:48:40;;;;;;;3.85;1.92;;;19.50;62.90;;;;;;4993575;28;20049;-62
2022/09/23 04:51:07;;;;;;;3.95;1.80;;;19.50;62.90;;;;;;4993050;28;20039;-62
2022/09/23 04:53:37;;;;;;;2.08;1.42;;;19.50;63.50;;;;;;4976159;28;20417;-62
2022/09/23 04:56:04;;;;;;;2.88;1.73;;;19.50;62.90;;;;;;4993543;28;20061;-62
2022/09/23 04:58:30;;;;;;;1.80;1.48;;;19.50;62.90;;;;;;4991658;28;20050;-62
2022/09/23 05:00:56;;;;;;;3.03;1.65;;;19.50;62.90;;;;;;4993533;28;20053;-62
2022/09/23 05:03:22;;;;;;;2.95;1.55;;;19.50;62.90;;;;;;4974919;28;20493;-62
2022/09/23 05:05:48;;;;;;;3.20;1.90;;;19.50;62.90;;;;;;4993507;28;20093;-62
2022/09/23 05:08:14;;;;;;;2.63;1.80;;;19.50;62.90;;;;;;4993104;28;20447;-62
2022/09/23 05:10:41;;;;;;;2.25;1.60;;;19.50;62.90;;;;;;4992840;28;20436;-62
2022/09/23 05:13:07;;;;;;;3.08;1.88;;;19.50;62.90;;;;;;4993339;28;20065;-62
2022/09/23 05:15:32;;;;;;;2.58;1.95;;;19.50;62.90;;;;;;4993148;28;20056;-62
2022/09/23 05:17:58;;;;;;;2.35;1.65;;;19.50;62.90;;;;;;4992778;28;20133;-62
2022/09/23 05:20:24;;;;;;;2.30;1.60;;;19.50;62.90;;;;;;4992663;28;20090;-62
2022/09/23 05:22:49;;;;;;;2.58;1.80;;;19.50;62.80;;;;;;4992849;28;20049;-62
2022/09/23 05:25:15;;;;;;;3.00;1.88;;;19.50;62.80;;;;;;4992112;28;20053;-63
2022/09/23 05:27:41;;;;;;;2.30;1.60;;;19.40;62.70;;;;;;4993171;28;20444;-62
2022/09/23 05:30:07;;;;;;;2.63;1.90;;;19.50;62.80;;;;;;4992580;28;20540;-62
2022/09/23 05:32:33;;;;;;;3.00;1.58;;;19.50;62.80;;;;;;4992466;28;20046;-62
2022/09/23 05:34:58;;;;;;;2.83;1.80;;;19.50;62.80;;;;;;4992860;28;20133;-62
2022/09/23 05:37:24;;;;;;;4.03;1.75;;;19.50;62.70;;;;;;4975188;28;20046;-62
2022/09/23 05:39:49;;;;;;;3.40;1.75;;;19.50;62.70;;;;;;4992686;28;20050;-62
2022/09/23 05:42:16;;;;;;;2.72;1.50;;;19.50;62.70;;;;;;4992987;28;20049;-62
2022/09/23 05:44:42;;;;;;;2.45;1.73;;;19.50;62.70;;;;;;4992660;28;20462;-62
2022/09/23 05:47:08;;;;;;;3.25;2.05;;;19.50;62.70;;;;;;4992451;28;20571;-62
2022/09/23 05:49:35;;;;;;;2.47;1.60;;;19.50;62.70;;;;;;4992973;28;20437;-62
2022/09/23 05:52:01;;;;;;;3.45;1.70;;;19.50;62.70;;;;;;4992952;28;20070;-62
2022/09/23 05:54:27;;;;;;;3.08;2.05;;;19.50;62.70;;;;;;4974599;28;20050;-62
2022/09/23 05:56:52;;;;;;;3.95;1.83;;;19.50;62.70;;;;;;4992892;28;20046;-62
2022/09/23 05:59:18;;;;;;;2.17;1.50;;;19.50;62.60;;;;;;4992826;28;20057;-62
2022/09/23 06:01:43;;;;;;;2.60;1.73;;;19.50;62.60;;;;;;4992058;28;20046;-62
2022/09/23 06:04:10;;;;;;;2.88;1.80;;;19.60;62.70;;;;;;4992157;28;20078;-62
2022/09/23 06:06:38;;;;;;;2.70;1.95;;;19.50;62.60;;;;;;4991347;28;20053;-62
2022/09/23 06:09:04;;;;;;;2.42;1.55;;;19.60;62.70;;;;;;4975344;28;20046;-62
2022/09/23 06:11:30;;;;;;;3.13;1.70;;;19.60;62.70;;;;;;4975024;28;20044;-65
2022/09/23 06:13:59;;;;;;;2.78;1.88;;;19.60;62.70;;;;;;4992245;28;20030;-63
2022/09/23 06:16:25;;;;;;;2.63;1.60;;;19.60;62.70;;;;;;4994658;28;20453;-63
2022/09/23 06:18:50;;;;;;;3.17;1.60;;;19.60;62.70;;;;;;4996197;28;20482;-63
2022/09/23 06:21:16;;;;;;;3.30;1.80;;;19.60;62.70;;;;;;4995781;28;20567;-63
2022/09/23 06:23:42;;;;;;;4.15;2.00;;;19.60;62.70;;;;;;4996780;28;20519;-64
2022/09/23 06:26:08;;;;;;;4.15;1.63;;;19.70;62.70;;;;;;4978479;28;20041;-64
2022/09/23 06:28:35;;;;;;;4.35;1.55;;;19.70;62.70;;;;;;4995805;28;20509;-64
2022/09/23 06:31:02;;;;;;;2.65;1.58;;;19.70;62.70;;;;;;4996438;28;20050;-64
2022/09/23 06:33:29;;;;;;;2.67;1.50;;;19.80;63.40;;;;;;4995691;28;20084;-64
2022/09/23 06:35:56;;;;;;;2.47;1.73;;;19.80;62.80;;;;;;4995829;28;20116;-64
2022/09/23 06:38:22;;;;;;;3.17;1.60;;;19.80;62.80;;;;;;4996200;28;20042;-64
2022/09/23 06:40:51;;;;;;;4.85;1.67;;;19.80;62.90;;;;;;4996149;28;20061;-63
2022/09/23 06:43:17;;;;;;;3.30;1.70;;;19.80;62.90;;;;;;4989155;28;20078;-63
2022/09/23 06:45:43;;;;;;;3.72;1.65;;;19.80;63.00;;;;;;4981083;28;20122;-63
2022/09/23 06:48:08;;;;;;;2.80;1.80;;;19.90;63.10;;;;;;4975851;28;20130;-61
2022/09/23 06:50:35;;;;;;;3.28;1.48;;;19.90;63.20;;;;;;4976248;28;20113;-62
2022/09/23 06:53:01;;;;;;;3.47;1.50;;;19.90;63.20;;;;;;4976412;28;20141;-63
2022/09/23 06:55:26;;;;;;;2.65;1.50;;;19.90;63.30;;;;;;4976233;28;20526;-62
2022/09/23 06:57:53;;;;;;;3.33;1.63;;;20.00;63.40;;;;;;4975973;28;20118;-63
2022/09/23 07:00:19;;;;;;;4.30;1.70;;;20.00;63.60;;;;;;4958434;28;20050;-62
2022/09/23 07:02:44;;;;;;;4.05;1.65;;;20.00;63.60;;;;;;4975723;28;20093;-62
2022/09/23 07:05:10;;;;;;;3.75;1.63;;;20.00;63.60;;;;;;4976010;28;20038;-63
2022/09/23 07:07:36;;;;;;;2.75;1.40;;;20.10;63.70;;;;;;4976308;28;20101;-62
2022/09/23 07:10:04;;;;;;;4.28;1.48;;;20.10;63.70;;;;;;4975613;28;20052;-62
2022/09/23 07:12:30;;;;;;;;;;;20.10;63.80;;;;;;4976503;28;20051;-63
2022/09/23 07:14:56;;;;;;;2.75;1.52;;;20.10;63.80;;;;;;4976004;28;20016;-63
2022/09/23 07:17:23;;;;;;;4.78;1.70;;;20.10;63.70;;;;;;4975299;28;20062;-63
2022/09/23 07:19:49;;;;;;;2.70;1.40;;;20.20;63.80;;;;;;4975889;28;20070;-62
2022/09/23 07:22:14;;;;;;;2.00;1.30;;;20.20;63.70;;;;;;4975597;28;20446;-62
2022/09/23 07:24:40;;;;;;;2.60;1.45;;;20.20;63.80;;;;;;4975524;28;20093;-62
2022/09/23 07:27:05;;;;;;;2.78;1.52;;;20.20;63.80;;;;;;4975698;28;20433;-63
2022/09/23 07:29:31;;;;;;;2.60;1.58;;;20.20;63.80;;;;;;4981874;28;20031;-61
2022/09/23 07:31:56;;;;;;;2.70;1.60;;;20.20;63.80;;;;;;4976942;28;20425;-62
2022/09/23 07:34:22;;;;;;;3.63;1.80;;;20.30;63.70;;;;;;4983657;28;20422;-62
2022/09/23 07:36:48;;;;;;;2.10;1.10;;;20.30;63.70;;;;;;4977956;28;20047;-62
2022/09/23 07:39:13;;;;;;;2.70;1.55;;;20.30;63.70;;;;;;4974692;28;20038;-61
2022/09/23 07:41:40;;;;;;;4.30;1.60;;;20.30;63.80;;;;;;4975323;28;20054;-62
2022/09/23 07:44:07;;;;;;;5.03;1.75;;;20.30;63.80;;;;;;4957571;28;20059;-63
2022/09/23 07:46:33;;;;;;;3.70;1.50;;;20.30;63.80;;;;;;4975138;28;20078;-62
2022/09/23 07:48:59;;;;;;;3.03;1.67;;;20.30;63.80;;;;;;4958144;28;20403;-63
2022/09/23 07:51:29;;;;;;;4.25;1.70;;;20.40;63.80;;;;;;4974807;28;20039;-63
2022/09/23 07:53:55;;;;;;;2.35;1.52;;;20.40;63.90;;;;;;4974622;28;20038;-63
2022/09/23 07:56:23;;;;;;;2.55;1.60;;;20.40;63.90;;;;;;4974311;28;20367;-63
2022/09/23 07:58:58;;;;;;;2.92;1.70;;;20.40;63.80;;;;;;4974001;28;20054;-63
2022/09/23 08:01:28;;;;;;;3.30;1.60;;;20.40;63.80;;;;;;4974386;28;20078;-63
2022/09/23 08:03:58;;;;;;;2.65;1.48;;;20.40;63.80;;;;;;4983001;28;20039;-63
2022/09/23 08:06:23;;;;;;;2.65;1.30;;;20.50;63.90;;;;;;4993666;28;20047;-63
2022/09/23 08:08:49;;;;;;;3.50;1.58;;;20.50;63.90;;;;;;4983142;28;20044;-63
2022/09/23 08:11:15;;;;;;;3.63;1.55;;;20.50;63.80;;;;;;4966643;28;20043;-63
2022/09/23 08:13:40;;;;;;;3.40;1.63;;;20.50;63.80;;;;;;4992247;28;20069;-63
2022/09/23 08:16:06;;;;;;;2.75;1.40;;;20.50;63.80;;;;;;4986454;28;20046;-64
2022/09/23 08:18:32;;;;;;;2.67;1.60;;;20.50;63.80;;;;;;4989948;28;20489;-63
2022/09/23 08:20:57;;;;;;;2.90;1.25;;;20.50;63.80;;;;;;4975980;28;20109;-64
2022/09/23 08:23:23;;;;;;;2.83;1.58;;;20.50;63.80;;;;;;4973439;28;20046;-63
2022/09/23 08:25:58;;;;;;;3.15;1.55;;;20.50;63.80;;;;;;4973030;28;20505;-66
2022/09/23 08:28:24;;;;;;;3.40;1.65;;;20.60;63.80;;;;;;4972226;28;20054;-63
2022/09/23 08:30:50;;;;;;;4.05;1.60;;;20.50;63.80;;;;;;4974128;28;20061;-63
2022/09/23 08:33:16;;;;;;;4.88;1.55;;;20.50;63.80;;;;;;4973620;28;20470;-63
2022/09/23 08:35:41;;;;;;;3.88;1.70;;;20.60;63.90;;;;;;4973324;28;20131;-63
2022/09/23 08:38:07;;;;;;;3.22;1.80;;;20.60;63.90;;;;;;4972831;28;20047;-64
2022/09/23 08:40:37;;;;;;;2.38;1.40;;;20.60;64.00;;;;;;4973856;28;20494;-63
2022/09/23 08:43:06;;;;;;;4.30;1.63;;;20.60;63.90;;;;;;4972280;28;20055;-63
2022/09/23 08:45:33;;;;;;;2.72;1.50;;;20.60;63.90;;;;;;4974026;28;20078;-63
2022/09/23 08:48:12;;;;;;;3.03;1.50;;;20.60;64.00;;;;;;4972752;28;20046;-64
2022/09/23 08:50:42;;;;;;;2.53;1.73;;;20.60;64.00;;;;;;4972183;28;20058;-64
2022/09/23 08:53:19;;;;;;;3.08;1.52;;;20.60;64.00;;;;;;4973213;28;20049;-64
2022/09/23 08:55:49;;;;;;;3.25;1.75;;;20.60;64.00;;;;;;4972307;28;20478;-63
2022/09/23 08:58:32;;;;;;;3.55;1.60;;;20.60;64.00;;;;;;4957050;28;20042;-63
2022/09/23 09:01:12;;;;;;;2.97;1.55;;;20.60;64.10;;;;;;4972626;28;20046;-63
2022/09/23 09:03:52;;;;;;;3.38;1.67;;;20.60;64.00;;;;;;4973494;28;20081;-63
2022/09/23 09:06:36;;;;;;;2.85;1.45;;;20.60;64.10;;;;;;4972617;28;20080;-63
2022/09/23 09:09:03;;;;;;;3.17;1.40;;;20.60;64.10;;;;;;4973731;28;20134;-63
2022/09/23 09:11:42;;;;;;;3.30;1.48;;;20.60;64.10;;;;;;4940281;28;20054;-63
2022/09/23 09:14:16;;;;;;;2.53;1.45;;;20.60;64.10;;;;;;4972649;28;20055;-63
2022/09/23 09:16:58;;;;;;;3.83;1.58;;;20.60;64.10;;;;;;4972499;28;20148;-63
2022/09/23 09:19:36;;;;;;;2.58;1.45;;;20.60;64.10;;;;;;4973755;28;20046;-62
2022/09/23 09:22:01;;;;;;;5.25;1.80;;;20.60;64.10;;;;;;4973452;28;20383;-63
2022/09/23 09:24:33;;;;;;;3.05;1.70;;;20.60;64.10;;;;;;4955668;28;20552;-63
2022/09/23 09:27:00;;;;;;;5.60;1.73;;;20.60;64.10;;;;;;4975408;28;20047;-61
2022/09/23 09:29:32;;;;;;;4.55;1.70;;;20.60;64.00;;;;;;4978195;28;20085;-62
2022/09/23 09:31:58;;;;;;;4.15;1.52;;;20.70;64.10;;;;;;4972309;28;20047;-63
2022/09/23 09:34:37;;;;;;;4.35;2.00;;;20.70;64.20;;;;;;4971889;28;20051;-62
2022/09/23 09:37:12;;;;;;;5.70;1.75;;;20.70;64.20;;;;;;4973832;28;20085;-63
2022/09/23 09:39:38;;;;;;;9.77;2.05;;;20.70;64.20;;;;;;4971951;28;20043;-64
2022/09/23 09:42:04;;;;;;;7.70;1.83;;;20.70;64.10;;;;;;4973509;28;20545;-63
2022/09/23 09:44:47;;;;;;;8.43;2.00;;;20.70;64.00;;;;;;4974334;28;20050;-61
2022/09/23 09:47:27;;;;;;;14.15;2.10;;;20.80;64.20;;;;;;4981208;28;20053;-62
2022/09/23 09:50:43;;;;;;;5.78;1.83;;;20.80;64.10;;;;;;4972533;28;20042;-62
2022/09/23 09:53:33;;;;;;;14.98;2.75;;;20.80;64.30;;;;;;4916120;29;20488;-61
2022/09/23 09:56:07;;;;;;;12.18;3.00;;;20.80;64.40;;;;;;4993292;28;20046;-61
2022/09/23 09:58:54;;;;;;;15.32;2.75;;;20.90;64.40;;;;;;4989813;28;20052;-60
2022/09/23 10:01:23;;;;;;;9.45;3.17;;;21.00;64.50;;;;;;4993397;28;20060;-60
2022/09/23 10:03:50;;;;;;;11.10;2.80;;;21.00;64.50;;;;;;4995280;28;20097;-60
2022/09/23 10:06:24;;;;;;;11.40;3.20;;;21.00;64.60;;;;;;4976231;28;20047;-60
2022/09/23 10:09:16;;;;;;;13.52;3.47;;;21.00;64.80;;;;;;4985543;28;20513;-59
2022/09/23 10:11:41;;;;;;;14.38;3.10;;;21.00;64.90;;;;;;4976397;28;20070;-60
2022/09/23 10:14:16;;;;;;;13.18;3.67;;;21.00;64.90;;;;;;4974747;28;20080;-60
2022/09/23 10:16:42;;;;;;;10.70;2.88;;;21.00;65.00;;;;;;4976636;28;20054;-60
2022/09/23 10:19:27;;;;;;;11.15;3.60;;;21.00;65.00;;;;;;4975249;28;20043;-59
2022/09/23 10:21:58;;;;;;;10.45;3.05;;;21.00;65.10;;;;;;4981178;28;20050;-60
2022/09/23 10:24:29;;;;;;;10.48;3.30;;;20.90;65.10;;;;;;4986142;28;20042;-60
2022/09/23 10:26:59;;;;;;;9.25;3.30;;;20.90;65.10;;;;;;4968418;28;20129;-59
2022/09/23 10:29:32;;;;;;;8.32;3.15;;;20.90;65.20;;;;;;4986662;28;20046;-60
2022/09/23 10:32:19;;;;;;;10.32;3.45;;;20.90;65.20;;;;;;4987823;28;20047;-60
2022/09/23 10:34:45;;;;;;;7.20;2.60;;;20.90;65.20;;;;;;4984256;28;20049;-61
2022/09/23 10:37:25;;;;;;;10.25;3.20;;;20.90;65.20;;;;;;4985603;28;20783;-60
2022/09/23 10:48:47;;;;;;;10.80;2.80;;;20.80;65.40;;;;;;4989721;28;20490;-60
2022/09/23 10:51:19;;;;;;;7.15;2.95;;;20.80;65.40;;;;;;4979418;28;20042;-60
2022/09/23 10:54:10;;;;;;;5.78;2.33;;;20.80;65.40;;;;;;4958142;28;20051;-60
2022/09/23 10:56:39;;;;;;;5.80;2.60;;;20.80;65.30;;;;;;4948784;28;20051;-60
2022/09/23 10:59:16;;;;;;;7.80;2.45;;;20.80;65.50;;;;;;4974760;28;20355;-60
2022/09/23 11:02:06;;;;;;;7.37;2.60;;;20.70;66.10;;;;;;4990867;28;20046;-61
2022/09/23 11:05:02;;;;;;;10.27;2.80;;;20.70;65.40;;;;;;4977950;28;20383;-60
2022/09/23 11:07:49;;;;;;;6.07;2.42;;;20.70;65.40;;;;;;4977237;28;20414;-60
2022/09/23 11:10:38;;;;;;;6.70;3.08;;;20.70;65.40;;;;;;4994152;28;20062;-60
2022/09/23 11:13:27;;;;;;;8.13;2.90;;;20.70;65.50;;;;;;4994932;28;20050;-60
2022/09/23 11:16:19;;;;;;;7.03;2.65;;;20.70;65.40;;;;;;4975838;28;20042;-60
2022/09/23 11:19:02;;;;;;;8.15;2.58;;;20.70;65.30;;;;;;4964777;28;20406;-59
2022/09/23 11:21:47;;;;;;;8.88;2.65;;;20.70;65.10;;;;;;4984470;28;20049;-59
2022/09/23 11:24:49;;;;;;;8.80;2.88;;;20.70;65.20;;;;;;4984838;28;20145;-59
2022/09/23 11:27:52;;;;;;;6.03;2.15;;;20.70;65.20;;;;;;4937420;29;20423;-59
2022/09/23 11:30:21;;;;;;;7.57;2.25;;;20.70;65.30;;;;;;4924599;28;20055;-60
2022/09/23 11:33:12;;;;;;;7.88;2.67;;;20.70;65.30;;;;;;4987996;28;20054;-59
2022/09/23 11:35:54;;;;;;;6.95;2.80;;;20.70;65.30;;;;;;4975912;28;20065;-60
2022/09/23 11:38:30;;;;;;;5.90;2.28;;;20.70;65.40;;;;;;4968429;28;20051;-59
2022/09/23 11:40:59;;;;;;;7.60;2.30;;;20.70;65.40;;;;;;4969070;28;20045;-60
2022/09/23 11:43:28;;;;;;;5.90;2.30;;;20.70;65.50;;;;;;4965826;28;20054;-59
2022/09/23 11:46:18;;;;;;;5.18;2.15;;;20.70;65.50;;;;;;4974060;28;20047;-59
2022/09/23 11:48:55;;;;;;;6.38;2.40;;;20.70;65.50;;;;;;4994104;28;20050;-60
2022/09/23 11:51:21;;;;;;;5.30;2.00;;;20.70;65.40;;;;;;4993830;28;20046;-59
2022/09/23 11:53:56;;;;;;;5.85;2.40;;;20.70;65.40;;;;;;4992970;28;20437;-59
2022/09/23 11:56:52;;;;;;;5.85;2.40;;;20.70;65.40;;;;;;4992407;28;20494;-61
2022/09/23 11:59:17;;;;;;;6.20;2.22;;;20.70;65.40;;;;;;4971951;28;20109;-61
2022/09/23 12:01:52;;;;;;;5.15;2.20;;;20.70;65.50;;;;;;4994197;28;20050;-61
2022/09/23 12:04:26;;;;;;;8.32;2.63;;;20.70;65.50;;;;;;4993649;28;20054;-60
2022/09/23 12:06:57;;;;;;;6.03;2.15;;;20.70;65.40;;;;;;4984420;28;20034;-60
2022/09/23 12:09:36;;;;;;;5.82;1.92;;;20.60;65.40;;;;;;4985326;28;20125;-60
2022/09/23 12:12:08;;;;;;;5.47;2.20;;;20.70;65.50;;;;;;4961723;28;20039;-61
2022/09/23 12:14:54;;;;;;;7.57;2.10;;;20.70;65.60;;;;;;4972188;28;20046;-60
2022/09/23 12:17:32;;;;;;;5.38;2.20;;;20.70;65.60;;;;;;4975419;28;20079;-59
2022/09/23 12:20:40;;;;;;;6.45;2.15;;;20.60;65.60;;;;;;4972677;28;20169;-59
2022/09/23 12:23:20;;;;;;;5.47;2.17;;;20.70;65.60;;;;;;4976987;28;20046;-60
2022/09/23 12:26:02;;;;;;;5.88;2.40;;;20.70;65.60;;;;;;4993498;28;20050;-60
2022/09/23 12:28:29;;;;;;;5.80;2.22;;;20.60;65.60;;;;;;4975931;28;20129;-60
2022/09/23 12:30:56;;;;;;;7.13;2.30;;;20.60;65.60;;;;;;4976414;28;20082;-60
2022/09/23 12:33:25;;;;;;;6.20;2.10;;;20.60;65.50;;;;;;4993069;28;20501;-60
2022/09/23 12:36:14;;;;;;;4.53;2.10;;;20.60;65.50;;;;;;4976327;28;20545;-60
2022/09/23 12:38:50;;;;;;;10.05;2.42;;;20.60;65.50;;;;;;4978626;28;20050;-60
2022/09/23 12:41:22;;;;;;;7.53;2.25;;;20.60;65.50;;;;;;4960969;28;20065;-60
2022/09/23 12:44:13;;;;;;;6.80;2.10;;;20.60;65.50;;;;;;4992834;28;20066;-60
2022/09/23 12:46:39;;;;;;;4.43;1.90;;;20.60;65.40;;;;;;4984184;28;20052;-60
2022/09/23 12:49:20;;;;;;;5.00;2.05;;;20.60;65.50;;;;;;4992202;28;20050;-60
2022/09/23 12:52:11;;;;;;;5.78;1.80;;;20.60;65.50;;;;;;4976145;28;20071;-60
2022/09/23 12:54:40;;;;;;;5.20;1.83;;;20.60;65.50;;;;;;4992892;28;20457;-60
2022/09/23 12:57:34;;;;;;;4.47;1.80;;;20.50;65.40;;;;;;4992054;28;20478;-60
2022/09/23 13:00:06;;;;;;;6.45;2.17;;;20.50;65.40;;;;;;4993330;28;20042;-60
2022/09/23 13:02:42;;;;;;;5.57;2.33;;;20.50;65.40;;;;;;4992918;28;20498;-60
2022/09/23 13:08:07;;;;;;;4.22;1.90;;;20.50;65.40;;;;;;4992670;28;20062;-60
2022/09/23 13:10:47;;;;;;;5.53;2.15;;;20.50;65.40;;;;;;4992784;28;20045;-60
2022/09/23 13:13:30;;;;;;;4.88;2.00;;;20.50;65.40;;;;;;4991667;28;20042;-60
2022/09/23 13:16:21;;;;;;;5.75;2.35;;;20.50;65.30;;;;;;4992897;28;20053;-60
2022/09/23 13:18:57;;;;;;;4.10;1.98;;;20.50;65.40;;;;;;4993190;28;20039;-60
2022/09/23 13:21:41;;;;;;;3.50;1.75;;;20.50;65.40;;;;;;4993018;28;20085;-60
2022/09/23 13:24:13;;;;;;;3.92;1.90;;;20.50;65.30;;;;;;4992196;28;20048;-60
2022/09/23 13:26:56;;;;;;;3.65;2.00;;;20.50;65.30;;;;;;4993012;28;20057;-60